Time;durP1;ratioP1;P1;durP2;ratioP2;P2;SDS_P1;SDS_P2;PMS_P1;PMS_P2;Temp;Humidity;BMP_temperature;BMP_pressure;BME280_temperature;BME280_humidity;BME280_pressure;Samples;Min_cycle;Max_cycle;Signal;HPM_P1;HPM_P2
2023/04/21 00:02:14;;;;;;;17.38;12.27;;;;;;;-146.27;100.00;83919.19;5088294;28;20044;-63
2023/04/21 00:04:40;;;;;;;24.23;14.07;;;;;;;-146.27;100.00;83891.06;5086241;28;20070;-64
2023/04/21 00:07:07;;;;;;;22.40;13.57;;;;;;;-146.27;100.00;83919.19;5079557;28;21817;-64
2023/04/21 00:09:32;;;;;;;20.95;13.35;;;;;;;-146.27;100.00;83895.09;5092697;28;20024;-64
2023/04/21 00:11:58;;;;;;;24.27;14.00;;;;;;;-146.27;100.00;83939.31;5094525;28;20026;-64
2023/04/21 00:14:23;;;;;;;23.27;12.90;;;;;;;-146.27;100.00;83903.13;5091170;28;20032;-65
2023/04/21 00:16:51;;;;;;;23.10;14.32;;;;;;;-146.27;100.00;83905.13;5089233;28;20032;-65
2023/04/21 00:19:19;;;;;;;19.23;13.30;;;;;;;-146.27;100.00;83947.34;5090271;28;20036;-64
2023/04/21 00:21:45;;;;;;;20.75;14.50;;;;;;;-146.27;100.00;83909.16;5089921;28;20476;-64
2023/04/21 00:24:10;;;;;;;23.83;14.38;;;;;;;-146.27;100.00;83879.00;5087362;28;20016;-65
2023/04/21 00:26:36;;;;;;;22.23;14.13;;;;;;;-146.27;100.00;83909.16;5087297;28;20037;-65
2023/04/21 00:29:01;;;;;;;24.10;14.35;;;;;;;-146.27;100.00;83923.22;5080838;28;20046;-65
2023/04/21 00:31:27;;;;;;;24.30;14.25;;;;;;;-146.27;100.00;83927.25;5075973;28;20028;-64
2023/04/21 00:33:52;;;;;;;24.92;14.88;;;;;;;-146.27;100.00;83929.25;5091324;28;20028;-64
2023/04/21 00:36:18;;;;;;;24.27;14.57;;;;;;;-146.27;100.00;83925.22;5078259;28;20060;-64
2023/04/21 00:38:43;;;;;;;28.05;15.15;;;;;;;-146.27;100.00;83915.19;5086386;28;20024;-64
2023/04/21 00:41:09;;;;;;;34.28;15.93;;;;;;;-146.27;100.00;83921.22;5084385;28;20459;-65
2023/04/21 00:43:34;;;;;;;26.83;15.60;;;;;;;-146.27;100.00;83905.13;5078747;28;20488;-65
2023/04/21 00:46:00;;;;;;;33.92;16.35;;;;;;;-146.27;100.00;83951.34;5075720;28;20056;-65
2023/04/21 00:48:25;;;;;;;24.55;15.10;;;;;;;-146.27;100.00;83931.25;5081636;28;20047;-65
2023/04/21 00:50:50;;;;;;;26.00;14.85;;;;;;;-146.27;100.00;83935.28;5085254;28;20056;-65
2023/04/21 00:53:16;;;;;;;26.75;15.68;;;;;;;-146.27;100.00;83917.19;5074635;28;20024;-64
2023/04/21 00:55:42;;;;;;;26.65;15.68;;;;;;;-146.27;100.00;83915.19;5089269;28;20039;-64
2023/04/21 00:58:07;;;;;;;26.58;15.43;;;;;;;-146.27;100.00;83939.31;5094226;28;20099;-66
2023/04/21 01:00:32;;;;;;;27.73;15.38;;;;;;;-146.27;100.00;83939.31;5089968;28;20378;-64
2023/04/21 01:03:00;;;;;;;30.33;16.20;;;;;;;-146.27;100.00;83957.38;5088835;28;20483;-65
2023/04/21 01:05:25;;;;;;;29.52;16.65;;;;;;;-146.27;100.00;83921.22;5085195;28;20028;-65
2023/04/21 01:07:51;;;;;;;30.77;16.80;;;;;;;-146.27;100.00;83933.28;5085163;28;20062;-65
2023/04/21 01:10:17;;;;;;;29.00;16.00;;;;;;;-146.27;100.00;83907.16;5088422;28;20072;-64
2023/04/21 01:12:44;;;;;;;35.30;16.80;;;;;;;-146.27;100.00;83862.94;5091051;28;20137;-65
2023/04/21 01:15:11;;;;;;;30.73;16.40;;;;;;;-146.27;100.00;83947.34;5092404;28;20486;-64
2023/04/21 01:17:37;;;;;;;35.00;16.67;;;;;;;-146.27;100.00;83915.19;5081418;28;20361;-64
2023/04/21 01:20:07;;;;;;;32.70;17.10;;;;;;;-146.27;100.00;83931.25;5091296;28;20020;-64
2023/04/21 01:22:36;;;;;;;29.17;17.15;;;;;;;-146.27;100.00;83907.16;5082398;28;20043;-64
2023/04/21 01:25:01;;;;;;;34.20;17.48;;;;;;;-146.27;100.00;83959.41;5093591;28;20061;-63
2023/04/21 01:27:27;;;;;;;30.25;16.05;;;;;;;-146.27;100.00;83927.25;5093153;28;20028;-63
2023/04/21 01:29:54;;;;;;;32.58;17.17;;;;;;;-146.27;100.00;83909.16;5089308;28;20020;-64
2023/04/21 01:32:22;;;;;;;31.90;17.67;;;;;;;-146.27;100.00;83911.16;5087898;28;20028;-64
2023/04/21 01:34:49;;;;;;;34.85;17.38;;;;;;;-146.27;100.00;83923.22;5084713;28;20039;-64
2023/04/21 01:37:17;;;;;;;32.65;17.75;;;;;;;-146.27;100.00;83939.31;5093615;28;20032;-64
2023/04/21 01:39:45;;;;;;;30.85;17.35;;;;;;;-146.27;100.00;83870.97;5091255;28;20032;-64
2023/04/21 01:42:11;;;;;;;29.20;16.77;;;;;;;-146.27;100.00;83883.03;5074072;28;20036;-64
2023/04/21 01:44:37;;;;;;;31.10;17.95;;;;;;;-146.27;100.00;83923.22;5090838;28;20384;-63
2023/04/21 01:47:03;;;;;;;35.58;18.70;;;;;;;-146.27;100.00;83909.16;5078637;28;20476;-63
2023/04/21 01:49:28;;;;;;;33.85;17.95;;;;;;;-146.27;100.00;83953.38;5087413;28;20060;-63
2023/04/21 01:51:54;;;;;;;33.38;17.00;;;;;;;-146.27;100.00;83969.44;5079417;28;20027;-65
2023/04/21 01:54:19;;;;;;;33.03;17.67;;;;;;;-146.27;100.00;83927.25;5093380;28;20023;-63
2023/04/21 01:56:45;;;;;;;32.15;16.58;;;;;;;-146.27;100.00;83929.25;5090486;28;20082;-63
2023/04/21 01:59:10;;;;;;;35.25;17.63;;;;;;;-146.27;100.00;83943.31;5091180;28;20360;-67
2023/04/21 02:01:35;;;;;;;29.38;17.35;;;;;;;-146.27;100.00;83915.19;5089219;28;20042;-64
2023/04/21 02:04:02;;;;;;;30.98;17.23;;;;;;;-146.27;100.00;83917.19;5075605;28;20027;-64
2023/04/21 02:06:28;;;;;;;31.33;16.35;;;;;;;-146.27;100.00;83937.28;5082745;28;20081;-63
2023/04/21 02:08:54;;;;;;;31.63;16.63;;;;;;;-146.27;100.00;83955.38;5093210;28;20395;-65
2023/04/21 02:11:19;;;;;;;32.45;18.20;;;;;;;-146.27;100.00;83931.25;5092231;28;20040;-64
2023/04/21 02:13:45;;;;;;;36.08;19.27;;;;;;;-146.27;100.00;83929.25;5093171;28;20590;-63
2023/04/21 02:16:10;;;;;;;36.83;19.77;;;;;;;-146.27;100.00;83935.28;5092352;28;20032;-65
2023/04/21 02:18:38;;;;;;;38.40;19.33;;;;;;;-146.27;100.00;83943.31;5085721;28;20024;-65
2023/04/21 02:21:05;;;;;;;35.45;18.38;;;;;;;-146.27;100.00;83983.50;5091911;28;20492;-65
2023/04/21 02:23:30;;;;;;;34.83;18.90;;;;;;;-146.27;100.00;83917.19;5089613;28;20487;-64
2023/04/21 02:25:56;;;;;;;33.80;18.92;;;;;;;-146.27;100.00;83937.28;5086556;28;20085;-66
2023/04/21 02:28:21;;;;;;;41.70;19.10;;;;;;;-146.27;100.00;83959.41;5091861;28;20035;-63
2023/04/21 02:30:46;;;;;;;39.75;19.95;;;;;;;-146.27;100.00;83947.34;5090521;28;20472;-64
2023/04/21 02:33:12;;;;;;;37.40;19.55;;;;;;;-146.27;100.00;83943.31;5089670;28;20105;-64
2023/04/21 02:35:37;;;;;;;40.38;19.83;;;;;;;-146.27;100.00;84003.59;5087945;28;20032;-64
2023/04/21 02:38:06;;;;;;;36.42;19.55;;;;;;;-146.27;100.00;83939.31;5084235;28;20020;-65
2023/04/21 02:40:31;;;;;;;39.35;18.73;;;;;;;-146.27;100.00;83959.41;5090597;28;20032;-64
2023/04/21 02:42:57;;;;;;;37.70;19.35;;;;;;;-146.27;100.00;83951.34;5091507;28;20034;-64
2023/04/21 02:45:22;;;;;;;42.53;21.58;;;;;;;-146.27;100.00;83935.28;5091237;28;20035;-63
2023/04/21 02:47:47;;;;;;;43.55;22.25;;;;;;;-146.27;100.00;83959.41;5091460;28;20028;-64
2023/04/21 02:50:13;;;;;;;45.05;22.23;;;;;;;-146.27;100.00;83939.31;5088709;28;20028;-66
2023/04/21 02:52:38;;;;;;;39.20;20.83;;;;;;;-146.27;100.00;83989.53;5091710;28;20024;-64
2023/04/21 02:55:04;;;;;;;47.65;21.33;;;;;;;-146.27;100.00;83991.56;5092349;28;20036;-63
2023/04/21 02:57:29;;;;;;;45.92;22.88;;;;;;;-146.27;100.00;83955.38;5076083;28;20043;-65
2023/04/21 02:59:55;;;;;;;49.58;23.45;;;;;;;-146.27;100.00;83991.56;5088028;28;20028;-64
2023/04/21 03:02:20;;;;;;;45.90;22.13;;;;;;;-146.27;100.00;84007.63;5086382;28;20024;-65
2023/04/21 03:04:45;;;;;;;59.35;23.08;;;;;;;-146.27;100.00;83989.53;5088340;28;20471;-66
2023/04/21 03:07:12;;;;;;;47.97;23.23;;;;;;;-146.27;100.00;83965.44;5092185;28;20432;-64
2023/04/21 03:09:38;;;;;;;52.42;23.27;;;;;;;-146.27;100.00;83977.47;5082553;28;20028;-65
2023/04/21 03:12:03;;;;;;;42.75;22.17;;;;;;;-146.27;100.00;83991.56;5090865;28;20035;-64
2023/04/21 03:14:29;;;;;;;42.17;22.35;;;;;;;-146.27;100.00;83971.47;5091238;28;20058;-64
2023/04/21 03:16:54;;;;;;;44.33;21.48;;;;;;;-146.27;100.00;83991.56;5090285;28;20089;-65
2023/04/21 03:19:19;;;;;;;49.25;23.33;;;;;;;-146.27;100.00;83951.34;5085892;28;20032;-65
2023/04/21 03:21:45;;;;;;;50.30;23.05;;;;;;;-146.27;100.00;84019.69;5089969;28;20099;-65
2023/04/21 03:24:10;;;;;;;48.33;22.70;;;;;;;-146.27;100.00;83991.56;5092043;28;20031;-65
2023/04/21 03:26:38;;;;;;;49.90;22.58;;;;;;;-146.27;100.00;83979.50;5082814;28;20025;-63
2023/04/21 03:29:03;;;;;;;48.95;23.73;;;;;;;-146.27;100.00;83977.47;5086346;28;20024;-64
2023/04/21 03:31:29;;;;;;;50.33;23.60;;;;;;;-146.27;100.00;83963.41;5087305;28;20438;-63
2023/04/21 03:33:54;;;;;;;61.03;24.88;;;;;;;-146.27;100.00;83991.56;5079163;28;20055;-65
2023/04/21 03:36:19;;;;;;;55.17;24.30;;;;;;;-146.27;100.00;84110.13;5074244;28;20023;-64
2023/04/21 03:38:45;;;;;;;60.38;25.15;;;;;;;-146.27;100.00;83989.53;5086539;28;20040;-65
2023/04/21 03:41:10;;;;;;;54.55;24.85;;;;;;;-146.27;100.00;84045.81;5085093;28;20081;-64
2023/04/21 03:43:35;;;;;;;55.47;23.95;;;;;;;-146.27;100.00;83999.59;5094172;28;20074;-65
2023/04/21 03:46:02;;;;;;;50.28;24.05;;;;;;;-146.27;100.00;84003.59;5094691;28;20028;-64
2023/04/21 03:48:28;;;;;;;53.42;23.88;;;;;;;-146.27;100.00;83995.56;5088838;28;20107;-65
2023/04/21 03:50:53;;;;;;;52.13;24.33;;;;;;;-146.27;100.00;83997.56;5080656;28;20055;-65
2023/04/21 03:53:19;;;;;;;51.53;24.08;;;;;;;-146.27;100.00;84007.63;5089789;28;20028;-65
2023/04/21 03:55:47;;;;;;;49.05;24.42;;;;;;;-146.27;100.00;83975.47;5093117;28;20035;-64
2023/04/21 03:58:16;;;;;;;57.67;23.85;;;;;;;-146.27;100.00;83995.56;5082866;28;20123;-65
2023/04/21 04:00:42;;;;;;;56.47;25.27;;;;;;;-146.27;100.00;84015.66;5064015;28;20155;-63
2023/04/21 04:03:07;;;;;;;58.88;25.27;;;;;;;-146.27;100.00;84003.59;5094894;28;20107;-64
2023/04/21 04:05:35;;;;;;;65.68;25.45;;;;;;;-146.27;100.00;83991.56;5092523;28;20430;-65
2023/04/21 04:08:00;;;;;;;56.53;23.60;;;;;;;-146.27;100.00;83999.59;5094518;28;20050;-64
2023/04/21 04:10:26;;;;;;;57.35;25.30;;;;;;;-146.27;100.00;84029.72;5092308;28;20024;-65
2023/04/21 04:12:51;;;;;;;61.10;26.02;;;;;;;-146.27;100.00;84035.75;5080582;28;20111;-64
2023/04/21 04:15:17;;;;;;;55.72;25.35;;;;;;;-146.27;100.00;84003.59;5080434;28;20489;-65
2023/04/21 04:17:42;;;;;;;54.88;24.73;;;;;;;-146.27;100.00;84049.84;5084148;28;20103;-64
2023/04/21 04:20:08;;;;;;;53.55;25.58;;;;;;;-146.27;100.00;84055.84;5091865;28;20487;-65
2023/04/21 04:22:34;;;;;;;57.70;26.25;;;;;;;-146.27;100.00;84013.66;5092719;28;20515;-64
2023/04/21 04:25:00;;;;;;;59.45;26.17;;;;;;;-146.27;100.00;84003.59;5092264;28;20024;-64
2023/04/21 04:27:26;;;;;;;58.75;25.17;;;;;;;-146.27;100.00;84023.69;5075302;28;20035;-64
2023/04/21 04:29:52;;;;;;;58.13;26.27;;;;;;;-146.27;100.00;83989.53;5083586;28;20051;-65
2023/04/21 04:32:17;;;;;;;56.80;26.90;;;;;;;-146.27;100.00;83975.47;5089119;28;20116;-64
2023/04/21 04:34:43;;;;;;;63.58;26.83;;;;;;;-146.27;100.00;83975.47;5093198;28;20486;-64
2023/04/21 04:37:09;;;;;;;64.13;26.55;;;;;;;-146.27;100.00;84053.84;5094048;28;20036;-65
2023/04/21 04:39:35;;;;;;;56.38;26.98;;;;;;;-146.27;100.00;84023.69;5094768;28;20107;-65
2023/04/21 04:42:02;;;;;;;52.70;26.55;;;;;;;-146.27;100.00;84017.69;5089705;28;20035;-65
2023/04/21 04:44:28;;;;;;;58.80;25.85;;;;;;;-146.27;100.00;84019.69;5086365;28;20035;-64
2023/04/21 04:46:53;;;;;;;59.45;28.08;;;;;;;-146.27;100.00;83991.56;5090519;28;20391;-65
2023/04/21 04:49:19;;;;;;;60.05;26.83;;;;;;;-146.27;100.00;84041.78;5093851;28;20088;-64
2023/04/21 04:51:44;;;;;;;60.78;27.48;;;;;;;-146.27;100.00;84035.75;5092213;28;20024;-64
2023/04/21 04:54:10;;;;;;;61.10;26.42;;;;;;;-146.27;100.00;83999.59;5091770;28;20590;-63
2023/04/21 04:56:36;;;;;;;58.00;27.20;;;;;;;-146.27;100.00;84021.69;5090623;28;20028;-65
2023/04/21 04:59:01;;;;;;;58.33;26.73;;;;;;;-146.27;100.00;84009.63;5094694;28;20071;-65
2023/04/21 05:01:29;;;;;;;59.85;26.13;;;;;;;-146.27;100.00;84051.84;5087278;28;20097;-65
2023/04/21 05:03:55;;;;;;;56.38;25.80;;;;;;;-146.27;100.00;84037.78;5092630;28;20480;-65
2023/04/21 05:06:21;;;;;;;63.30;26.80;;;;;;;-146.27;100.00;84039.78;5080540;28;20099;-65
2023/04/21 05:08:46;;;;;;;56.85;25.50;;;;;;;-146.27;100.00;83985.53;5082308;28;20178;-64
2023/04/21 05:11:12;;;;;;;61.83;28.60;;;;;;;-146.27;100.00;83975.47;5093835;28;20028;-65
2023/04/21 05:13:37;;;;;;;54.45;26.10;;;;;;;-146.27;100.00;84047.81;5092091;28;20096;-64
2023/04/21 05:16:03;;;;;;;55.15;25.92;;;;;;;-146.27;100.00;84025.72;5093089;28;20395;-65
2023/04/21 05:18:28;;;;;;;62.08;27.05;;;;;;;-146.27;100.00;84031.75;5094322;28;20047;-64
2023/04/21 05:20:53;;;;;;;58.15;26.98;;;;;;;-146.27;100.00;84001.59;5093081;28;20023;-64
2023/04/21 05:23:19;;;;;;;62.78;27.50;;;;;;;-146.27;100.00;84001.59;5092228;28;20110;-64
2023/04/21 05:25:45;;;;;;;61.65;28.10;;;;;;;-146.27;100.00;84021.69;5087832;28;20032;-65
2023/04/21 05:28:11;;;;;;;62.70;27.58;;;;;;;-146.27;100.00;83995.56;5088415;28;20048;-65
2023/04/21 05:30:36;;;;;;;64.10;27.40;;;;;;;-146.27;100.00;83971.47;5088260;28;20515;-65
2023/04/21 05:33:01;;;;;;;57.65;26.90;;;;;;;-146.27;100.00;83999.59;5089731;28;20513;-63
2023/04/21 05:35:29;;;;;;;55.00;26.13;;;;;;;-146.27;100.00;83987.53;5084513;28;20464;-64
2023/04/21 05:37:55;;;;;;;64.97;26.65;;;;;;;-146.27;100.00;84003.59;5077531;28;20110;-68
2023/04/21 05:40:20;;;;;;;57.13;26.27;;;;;;;-146.27;100.00;83989.53;5083013;28;20107;-66
2023/04/21 05:42:45;;;;;;;57.17;25.20;;;;;;;-146.27;100.00;83993.56;5082504;28;20495;-68
2023/04/21 05:45:11;;;;;;;51.85;25.75;;;;;;;-146.27;100.00;83981.50;5083001;28;20722;-68
2023/04/21 05:47:37;;;;;;;60.00;27.23;;;;;;;-146.27;100.00;83959.41;5079014;28;20427;-64
2023/04/21 05:50:03;;;;;;;50.83;26.08;;;;;;;-146.27;100.00;83927.25;5087164;28;20020;-64
2023/04/21 05:52:28;;;;;;;57.33;25.85;;;;;;;-146.27;100.00;83975.47;5090224;28;20024;-64
2023/04/21 05:54:54;;;;;;;51.40;25.15;;;;;;;-146.27;100.00;83975.47;5091296;28;20433;-67
2023/04/21 05:57:19;;;;;;;57.00;26.80;;;;;;;-146.27;100.00;84035.75;5092284;28;20573;-65
2023/04/21 05:59:44;;;;;;;55.92;25.42;;;;;;;-146.27;100.00;83937.28;5087782;28;20540;-66
2023/04/21 06:02:10;;;;;;;47.38;24.65;;;;;;;-146.27;100.00;83945.31;5089289;28;20031;-64
2023/04/21 06:04:36;;;;;;;49.40;25.35;;;;;;;-146.27;100.00;83945.31;5086846;28;20055;-66
2023/04/21 06:07:09;;;;;;;58.38;27.48;;;;;;;-146.27;100.00;83953.38;5086333;28;20412;-66
2023/04/21 06:09:35;;;;;;;56.40;26.98;;;;;;;-146.27;100.00;83947.34;5092718;28;20032;-66
2023/04/21 06:12:01;;;;;;;54.28;26.23;;;;;;;-146.27;100.00;83903.13;5076769;28;20080;-66
2023/04/21 06:14:26;;;;;;;52.58;26.65;;;;;;;-146.27;100.00;83947.34;5081944;28;20052;-66
2023/04/21 06:16:52;;;;;;;49.85;24.60;;;;;;;-146.27;100.00;83947.34;5089670;28;20475;-64
2023/04/21 06:19:17;;;;;;;49.30;25.85;;;;;;;-146.27;100.00;83911.16;5086110;28;20032;-65
2023/04/21 06:21:42;;;;;;;48.60;26.25;;;;;;;-146.27;100.00;83901.13;5081425;28;20048;-66
2023/04/21 06:24:08;;;;;;;50.83;26.33;;;;;;;-146.27;100.00;83929.25;5079363;28;20024;-66
2023/04/21 06:26:33;;;;;;;52.80;25.85;;;;;;;-146.27;100.00;83917.19;5087070;28;20027;-66
2023/04/21 06:28:59;;;;;;;53.03;27.45;;;;;;;-146.27;100.00;83903.13;5081025;28;20021;-65
2023/04/21 06:31:24;;;;;;;57.15;27.02;;;;;;;-146.27;100.00;83848.88;5085855;28;20111;-67
2023/04/21 06:33:50;;;;;;;52.10;27.17;;;;;;;-146.27;100.00;83927.25;5091850;28;20149;-64
2023/04/21 06:36:15;;;;;;;54.92;26.27;;;;;;;-146.27;100.00;83875.00;5089478;28;20077;-65
2023/04/21 06:38:42;;;;;;;52.55;27.02;;;;;;;-146.27;100.00;83877.00;5089696;28;20028;-67
2023/04/21 06:41:08;;;;;;;47.08;25.95;;;;;;;-146.27;100.00;83915.19;5075198;28;20034;-66
2023/04/21 06:43:33;;;;;;;54.92;27.88;;;;;;;-146.27;100.00;83887.06;5082490;28;20035;-65
2023/04/21 06:45:58;;;;;;;52.28;26.70;;;;;;;-146.27;100.00;83887.06;5091633;28;20104;-66
2023/04/21 06:48:25;;;;;;;57.45;29.65;;;;;;;-146.27;100.00;83887.06;5091917;28;20059;-67
2023/04/21 06:50:50;;;;;;;57.33;29.83;;;;;;;-146.27;100.00;83883.03;5085384;28;20024;-66
2023/04/21 06:53:17;;;;;;;51.92;27.40;;;;;;;-146.27;100.00;83877.00;5090516;28;20035;-67
2023/04/21 06:55:42;;;;;;;56.25;27.73;;;;;;;-146.27;100.00;83870.97;5089039;28;20380;-67
2023/04/21 06:58:08;;;;;;;58.80;29.27;;;;;;;-146.27;100.00;83875.00;5091119;28;20035;-66
2023/04/21 07:00:33;;;;;;;54.13;29.38;;;;;;;-146.27;100.00;83862.94;5089750;28;20472;-66
2023/04/21 07:02:58;;;;;;;59.33;30.70;;;;;;;-146.27;100.00;83832.78;5087152;28;20051;-67
2023/04/21 07:05:24;;;;;;;53.80;27.50;;;;;;;-146.27;100.00;83850.88;5091665;28;20693;-67
2023/04/21 07:07:49;;;;;;;58.72;31.08;;;;;;;-146.27;100.00;83854.91;5089350;28;20040;-66
2023/04/21 07:10:18;;;;;;;50.60;28.90;;;;;;;-146.27;100.00;83838.81;5084648;28;20021;-67
2023/04/21 07:12:44;;;;;;;56.25;30.80;;;;;;;-146.27;100.00;83844.84;5084419;28;20019;-67
2023/04/21 07:15:10;;;;;;;53.28;29.83;;;;;;;-146.27;100.00;83854.91;5088690;28;20459;-68
2023/04/21 07:17:36;;;;;;;56.03;29.95;;;;;;;-146.27;100.00;83862.94;5085308;28;20031;-67
2023/04/21 07:20:01;;;;;;;55.05;30.27;;;;;;;-146.27;100.00;83824.75;5088050;28;20108;-67
2023/04/21 07:22:26;;;;;;;52.45;29.60;;;;;;;-146.27;100.00;83927.25;5089179;28;20028;-67
2023/04/21 07:24:52;;;;;;;57.15;31.17;;;;;;;-146.27;100.00;83782.56;5087474;28;20051;-66
2023/04/21 07:27:18;;;;;;;55.33;30.23;;;;;;;-146.27;100.00;83864.94;5080053;28;20055;-68
2023/04/21 07:29:43;;;;;;;56.33;31.55;;;;;;;-146.27;100.00;83822.75;5086058;28;20519;-65
2023/04/21 07:32:09;;;;;;;56.38;31.67;;;;;;;-146.27;100.00;83808.69;5081622;28;20654;-68
2023/04/21 07:34:34;;;;;;;56.47;30.25;;;;;;;-146.27;100.00;83798.63;5077185;28;20224;-68
2023/04/21 07:37:00;;;;;;;55.83;30.17;;;;;;;-146.27;100.00;83800.63;5071189;28;20369;-68
2023/04/21 07:39:25;;;;;;;53.50;29.73;;;;;;;-146.27;100.00;83784.56;5073188;28;20520;-67
2023/04/21 07:41:51;;;;;;;58.20;31.40;;;;;;;-146.27;100.00;83794.63;5084164;28;20110;-66
2023/04/21 07:44:16;;;;;;;55.88;31.92;;;;;;;-146.27;100.00;83764.47;5090449;28;20364;-68
2023/04/21 07:46:41;;;;;;;54.00;30.40;;;;;;;-146.27;100.00;83798.63;5091060;28;20468;-68
2023/04/21 07:49:07;;;;;;;51.78;29.75;;;;;;;-146.27;100.00;83760.44;5082700;28;20059;-67
2023/04/21 07:51:33;;;;;;;54.45;29.63;;;;;;;-146.27;100.00;83774.53;5084857;28;20031;-68
2023/04/21 07:53:59;;;;;;;49.03;30.25;;;;;;;-146.27;100.00;83712.22;5073330;28;20154;-67
2023/04/21 07:56:24;;;;;;;52.42;29.42;;;;;;;-146.27;100.00;83706.19;5082494;28;20531;-67
2023/04/21 07:58:49;;;;;;;48.60;29.58;;;;;;;-146.27;100.00;83714.22;5072818;28;20483;-68
2023/04/21 08:01:15;;;;;;;48.17;27.80;;;;;;;-146.27;100.00;83698.16;5071019;28;20024;-67
2023/04/21 08:03:40;;;;;;;45.75;27.63;;;;;;;-146.27;100.00;83670.03;5076479;28;20025;-68
2023/04/21 08:06:06;;;;;;;47.92;28.25;;;;;;;-146.27;100.00;83678.06;5075904;28;20035;-67
2023/04/21 08:08:31;;;;;;;49.67;28.52;;;;;;;-146.27;100.00;83651.94;5071241;28;20052;-68
2023/04/21 08:10:57;;;;;;;50.45;29.77;;;;;;;-146.27;100.00;83684.09;5084080;28;20526;-68
2023/04/21 08:13:24;;;;;;;52.38;28.70;;;;;;;-146.27;100.00;83633.84;5085757;28;20113;-68
2023/04/21 08:15:53;;;;;;;52.90;29.48;;;;;;;-146.27;100.00;83621.81;5071100;28;20158;-67
2023/04/21 08:18:19;;;;;;;48.33;29.77;;;;;;;-146.27;100.00;83629.84;5080759;28;20082;-67
2023/04/21 08:20:46;;;;;;;47.83;28.00;;;;;;;-146.27;100.00;83633.84;5076076;28;20036;-67
2023/04/21 08:23:12;;;;;;;50.17;30.15;;;;;;;-146.27;100.00;83601.72;5079959;28;20056;-67
2023/04/21 08:25:38;;;;;;;46.47;28.05;;;;;;;-146.27;100.00;83593.66;5077278;28;20661;-67
2023/04/21 08:28:03;;;;;;;45.63;27.58;;;;;;;-146.27;100.00;83567.53;5072456;28;20028;-67
2023/04/21 08:30:29;;;;;;;44.15;26.15;;;;;;;-146.27;100.00;83563.53;5078294;28;20103;-68
2023/04/21 08:32:54;;;;;;;43.45;26.52;;;;;;;-146.27;100.00;83517.31;5081295;28;20029;-68
2023/04/21 08:35:19;;;;;;;40.72;27.52;;;;;;;-146.27;100.00;83509.28;5074518;28;20052;-67
2023/04/21 08:37:45;;;;;;;44.13;26.70;;;;;;;-146.27;100.00;83525.34;5074179;28;20036;-68
2023/04/21 08:40:10;;;;;;;44.75;27.50;;;;;;;-146.27;100.00;83513.28;5080070;28;20070;-68
2023/04/21 08:42:37;;;;;;;42.67;27.35;;;;;;;-146.27;100.00;83569.56;5085166;28;20436;-67
2023/04/21 08:45:04;;;;;;;42.97;26.80;;;;;;;-146.27;100.00;83471.09;5080782;28;20052;-67
2023/04/21 08:47:31;;;;;;;40.95;26.38;;;;;;;-146.27;100.00;83438.94;5074028;28;20031;-68
2023/04/21 08:49:57;;;;;;;38.10;24.83;;;;;;;-146.27;100.00;83420.88;5085693;28;20020;-68
2023/04/21 08:52:23;;;;;;;40.65;25.88;;;;;;;-146.27;100.00;83396.75;5085366;28;20030;-68
2023/04/21 08:54:51;;;;;;;36.10;22.52;;;;;;;-146.27;100.00;83406.78;5078069;28;20032;-67
2023/04/21 08:57:17;;;;;;;35.53;22.20;;;;;;;-146.27;100.00;83360.59;5080014;28;20032;-68
2023/04/21 08:59:43;;;;;;;31.75;22.02;;;;;;;-146.27;100.00;83360.59;5074235;28;20058;-67
2023/04/21 09:02:10;;;;;;;33.45;23.05;;;;;;;-146.27;100.00;83354.56;5077631;28;20024;-66
2023/04/21 09:04:50;;;;;;;32.67;22.35;;;;;;;-146.27;100.00;83324.41;5077309;28;20392;-67
2023/04/21 09:07:35;;;;;;;31.13;20.75;;;;;;;-146.27;96.83;83328.44;5074104;28;20052;-64
2023/04/21 09:10:01;;;;;;;29.33;20.08;;;;;;;-146.27;98.07;83288.25;5073536;28;20032;-65
2023/04/21 09:12:27;;;;;;;32.92;21.85;;;;;;;-146.27;96.34;83292.28;5081908;28;20460;-65
2023/04/21 09:14:53;;;;;;;31.90;21.17;;;;;;;-146.27;94.24;83256.09;5080094;28;20033;-65
2023/04/21 09:17:22;;;;;;;36.78;21.45;;;;;;;-146.27;96.48;83203.88;5073648;28;20043;-65
2023/04/21 09:19:47;;;;;;;31.13;21.55;;;;;;;-146.27;96.60;83195.81;5077438;28;20512;-64
2023/04/21 09:22:14;;;;;;;31.23;21.25;;;;;;;-146.27;94.49;83219.94;5085353;28;20102;-65
2023/04/21 09:24:48;;;;;;;31.20;20.90;;;;;;;-146.27;97.35;83217.94;5083528;28;20036;-65
2023/04/21 09:27:16;;;;;;;31.35;21.13;;;;;;;-146.27;94.36;83135.53;5072506;28;20032;-64
2023/04/21 09:29:47;;;;;;;31.70;21.55;;;;;;;-146.27;98.66;83111.44;5091761;28;20035;-64
2023/04/21 09:32:17;;;;;;;31.88;23.15;;;;;;;-146.27;94.87;83079.28;5085389;28;20046;-65
2023/04/21 09:34:43;;;;;;;32.78;20.73;;;;;;;-146.27;93.36;83075.28;5088726;28;20035;-65
2023/04/21 09:37:11;;;;;;;29.45;21.88;;;;;;;-146.27;91.63;83043.13;5077138;28;20361;-64
2023/04/21 09:39:37;;;;;;;33.28;21.23;;;;;;;-146.27;90.16;83047.16;5080360;28;20043;-64
2023/04/21 09:42:02;;;;;;;33.08;21.60;;;;;;;-146.27;88.64;83051.16;5093441;28;20020;-65
2023/04/21 09:44:28;;;;;;;30.42;20.63;;;;;;;-146.27;90.04;83039.09;5093745;28;20055;-65
2023/04/21 09:47:07;;;;;;;29.05;20.30;;;;;;;-146.27;88.82;82966.78;5075630;28;20067;-66
2023/04/21 09:49:35;;;;;;;35.72;22.17;;;;;;;-146.27;88.11;83025.03;5072929;28;20025;-65
2023/04/21 09:52:02;;;;;;;28.77;20.85;;;;;;;-146.27;88.30;82966.78;5081120;28;20035;-65
2023/04/21 09:54:32;;;;;;;30.65;21.92;;;;;;;-146.27;89.85;83027.06;5081824;28;20028;-65
2023/04/21 09:57:00;;;;;;;35.65;22.70;;;;;;;-146.27;88.15;82986.88;5092724;28;20030;-65
2023/04/21 09:59:31;;;;;;;29.30;19.85;;;;;;;-146.27;85.97;82982.84;5093581;28;20464;-64
2023/04/21 10:01:58;;;;;;;30.35;21.10;;;;;;;-146.27;87.56;82968.78;5092914;28;20031;-65
2023/04/21 10:04:24;;;;;;;29.70;21.58;;;;;;;-146.27;87.18;82910.53;5073064;28;20059;-64
2023/04/21 10:06:51;;;;;;;29.35;21.70;;;;;;;-146.27;85.37;82938.66;5079651;28;20106;-64
2023/04/21 10:09:20;;;;;;;32.80;23.02;;;;;;;-146.27;85.13;82942.66;5085921;28;20045;-64
2023/04/21 10:11:45;;;;;;;28.77;20.17;;;;;;;-146.27;85.53;82896.47;5079000;28;20028;-65
2023/04/21 10:14:12;;;;;;;30.33;19.92;;;;;;;-146.27;85.48;82934.63;5091343;28;20368;-64
2023/04/21 10:16:37;;;;;;;26.02;18.52;;;;;;;-146.27;85.66;82848.25;5077702;28;20071;-64
2023/04/21 10:19:23;;;;;;;25.25;18.80;;;;;;;-146.27;83.66;82920.56;5075645;28;20060;-65
2023/04/21 10:21:49;;;;;;;26.17;18.70;;;;;;;-146.27;82.20;82902.50;5092041;28;20032;-64
2023/04/21 10:24:14;;;;;;;24.95;18.13;;;;;;;-146.27;81.01;82888.44;5082117;28;20020;-64
2023/04/21 10:26:40;;;;;;;23.55;16.95;;;;;;;-146.27;81.38;82876.38;5082559;28;20028;-64
2023/04/21 10:29:08;;;;;;;22.35;15.98;;;;;;;-146.27;82.51;82842.22;5090646;28;20032;-64
2023/04/21 10:31:34;;;;;;;21.45;14.68;;;;;;;-146.27;77.91;82806.06;5078078;28;20401;-64
2023/04/21 10:34:15;;;;;;;20.88;14.98;;;;;;;-146.27;81.01;82761.84;5087228;28;20090;-64
2023/04/21 10:36:56;;;;;;;20.48;14.85;;;;;;;-146.27;77.42;82745.78;5089367;28;20609;-64
2023/04/21 10:39:36;;;;;;;25.65;15.27;;;;;;;-146.27;78.35;82755.84;5080381;28;20461;-65
2023/04/21 10:42:33;;;;;;;18.30;14.27;;;;;;;-146.27;78.13;82723.69;5087491;28;20069;-65
2023/04/21 10:44:58;;;;;;;19.90;15.15;;;;;;;-146.27;77.03;82669.44;5083657;28;20505;-65
2023/04/21 10:47:28;;;;;;;20.52;15.43;;;;;;;-146.27;76.06;82723.69;5081268;28;20024;-65
2023/04/21 10:49:56;;;;;;;20.23;15.38;;;;;;;-146.27;76.19;82713.66;5087920;28;20024;-64
2023/04/21 10:52:34;;;;;;;20.60;16.52;;;;;;;-146.27;74.68;82709.63;5089396;28;20483;-65